Latest Weather Observations for Barrow Island

IDW60801

Issued at 3:02 pm WST Monday 25 May 2015 (issued every 30 minutes, with the page automatically refreshed every 10 minutes)

About weather observations | Map of weather stations | Latest weather observations for WA | Other Formats
Station Details ID: 005094 Name: BARROW ISLAND AIRPORT Lat: -20.88 Lon: 115.41 Height: 6.4 m
Data from the previous 72 hours. | See also: Recent months at Barrow Island
Date/Time
WST
Temp
°C
App
Temp
°C
Dew
Point
Rel
Hum
%
Delta-T
°C
Wind Press
QNH
hPa
Press
MSL
hPa
Rain
since 9 am
mm
Dir
 
Spd
km/h
Gust
km/h
Spd
kts
Gust
kts
25/03:00pm 19.9 16.6 17.9 88 1.2 E 32 35 17 19 1014.6 1014.6 1.2
25/02:30pm 20.0 16.5 17.8 87 1.4 E 33 39 18 21 1014.5 - 1.2
25/02:00pm 19.9 16.0 17.9 88 1.2 E 35 43 19 23 1014.7 - 1.2
25/01:30pm 19.6 16.0 17.6 88 1.2 E 33 39 18 21 1015.0 - 1.2
25/01:00pm 19.2 15.1 17.3 89 1.2 E 35 41 19 22 1015.5 - 0.8
25/12:30pm 19.3 14.4 17.3 88 1.2 ENE 39 46 21 25 1015.8 - 0.6
25/12:00pm 20.3 15.3 17.1 82 1.9 ENE 39 44 21 24 1016.0 1016.0 0.0
25/11:30am 21.3 16.0 17.3 78 2.5 E 41 48 22 26 1016.1 - 0.0
25/11:00am 21.1 15.7 16.9 77 2.6 E 41 48 22 26 1016.3 - 0.0
25/10:30am 20.8 14.8 17.0 79 2.3 E 44 52 24 28 1016.6 - 0.0
25/10:00am 20.8 14.9 16.8 78 2.4 E 43 50 23 27 1016.8 - 0.0
25/09:30am 20.7 14.3 17.7 83 1.8 E 48 54 26 29 1016.7 - 0.0
25/09:00am 20.7 14.1 17.3 81 2.1 E 48 57 26 31 1016.6 1016.6 31.4
25/08:30am 20.6 13.7 17.6 83 1.8 E 50 59 27 32 1016.3 - 31.4
25/08:00am 20.3 13.1 16.7 80 2.2 E 50 59 27 32 1016.0 - 31.4
25/07:30am 20.3 13.3 17.3 83 1.8 E 50 57 27 31 1015.8 - 31.4
25/07:00am 20.5 14.4 17.5 83 1.8 E 46 54 25 29 1015.6 - 31.4
25/06:30am 20.7 14.9 17.5 82 2.0 E 44 52 24 28 1015.1 - 31.4
25/06:00am 20.8 15.4 18.0 84 1.7 E 43 52 23 28 1014.7 1014.7 31.4
25/05:30am 20.9 15.7 18.3 85 1.6 E 43 50 23 27 1014.4 - 31.4
25/05:00am 21.1 16.3 18.5 85 1.6 E 41 48 22 26 1014.2 - 31.4
25/04:30am 21.1 16.3 18.5 85 1.6 E 41 48 22 26 1014.1 - 31.4
25/04:00am 21.1 15.8 18.5 85 1.6 ENE 44 50 24 27 1014.0 - 31.4
25/03:30am 21.0 17.1 18.8 87 1.4 E 37 44 20 24 1014.0 - 31.4
25/03:00am 20.9 15.8 18.7 87 1.4 E 43 48 23 26 1013.9 1013.9 31.4
25/02:30am 21.1 16.6 19.0 88 1.3 E 41 46 22 25 1014.0 - 31.4
25/02:00am 21.3 17.6 19.2 88 1.3 E 37 43 20 23 1014.1 - 31.4
25/01:30am 21.1 17.5 19.4 90 1.1 ENE 37 43 20 23 1013.9 - 31.4
25/01:00am 21.1 17.1 19.4 90 1.1 ENE 39 44 21 24 1014.3 - 31.4
25/12:30am 21.3 18.2 19.6 90 1.1 E 35 39 19 21 1014.5 - 31.4
25/12:00am 21.8 19.7 19.7 88 1.3 E 30 33 16 18 1014.5 1014.5 31.4
 
Date/Time
WST
Temp
°C
App
Temp
°C
Dew
Point
Rel
Hum
%
Delta-T
°C
Wind Press
QNH
hPa
Press
MSL
hPa
Rain
since 9 am
mm
Dir
 
Spd
km/h
Gust
km/h
Spd
kts
Gust
kts
24/11:30pm 21.5 18.7 19.4 88 1.3 ENE 33 39 18 21 1014.5 - 31.4
24/11:00pm 21.2 19.3 19.3 89 1.2 E 28 32 15 17 1014.8 - 31.4
24/10:30pm 21.1 18.3 19.4 90 1.1 E 33 37 18 20 1015.1 - 31.4
24/10:00pm 21.0 18.1 19.3 90 1.1 E 33 39 18 21 1015.3 - 31.4
24/09:30pm 21.1 17.7 19.0 88 1.3 ENE 35 43 19 23 1015.2 - 31.4
24/09:00pm 21.1 16.9 19.0 88 1.3 ENE 39 46 21 25 1015.0 1015.0 31.4
24/08:30pm 20.8 15.7 19.1 90 1.1 ENE 44 52 24 28 1014.7 - 31.4
24/08:00pm 21.0 16.7 19.5 91 1.0 ENE 41 48 22 26 1015.1 - 31.4
24/07:30pm 20.6 16.1 19.1 91 0.9 ENE 41 44 22 24 1014.9 - 31.2
24/07:00pm 20.7 16.3 19.2 91 0.9 ENE 41 46 22 25 1014.7 - 31.2
24/06:30pm 21.0 17.9 19.6 92 0.9 ENE 35 39 19 21 1014.9 - 30.8
24/06:00pm 20.9 18.3 19.6 92 0.8 ENE 32 35 17 19 1015.0 1015.0 30.2
24/05:30pm 20.7 17.1 19.4 92 0.8 ENE 37 43 20 23 1014.5 - 29.4
24/05:00pm 20.9 18.4 19.7 93 0.8 ENE 32 37 17 20 1014.4 - 28.0
24/04:30pm 20.7 17.9 19.4 92 0.8 ENE 33 39 18 21 1014.4 - 26.8
24/04:00pm 21.0 18.0 19.8 93 0.8 ENE 35 41 19 22 1014.2 - 25.6
24/03:30pm 20.9 18.2 19.7 93 0.8 ENE 33 37 18 20 1014.0 - 23.6
24/03:00pm 21.1 18.7 19.9 93 0.8 ENE 32 35 17 19 1014.2 1014.2 21.4
24/02:30pm 21.1 19.6 19.4 90 1.1 ENE 26 30 14 16 1014.2 - 18.6
24/02:00pm 20.8 20.2 18.9 89 1.2 NE 20 24 11 13 1014.2 - 17.4
24/01:30pm 21.4 22.9 19.7 90 1.1 E 11 13 6 7 1014.2 - 16.6
24/01:00pm 21.5 23.1 20.0 91 1.0 E 11 15 6 8 1014.7 - 16.6
24/12:30pm 21.5 21.7 20.1 92 0.9 ESE 19 22 10 12 1015.1 - 16.0
24/12:00pm 21.7 21.4 20.3 92 0.9 SE 22 26 12 14 1015.3 1015.3 13.0
24/11:30am 21.9 22.1 20.5 92 0.9 SE 20 24 11 13 1015.6 - 11.2
24/11:00am 22.0 22.3 20.5 91 1.0 SSE 19 20 10 11 1015.8 - 9.4
24/10:30am 22.0 22.7 20.5 91 1.0 SSE 17 19 9 10 1016.0 - 9.4
24/10:00am 21.5 22.7 19.8 90 1.1 ESE 13 15 7 8 1016.1 - 8.8
24/09:30am 21.7 21.8 20.0 90 1.1 E 19 20 10 11 1016.0 - 6.8
24/09:00am 21.9 23.5 20.0 89 1.2 S 11 13 6 7 1015.6 1015.6 14.4
24/08:30am 22.5 25.2 20.6 89 1.2 SE 7 9 4 5 1015.6 - 14.0
24/08:00am 22.4 24.6 20.3 88 1.4 SE 9 11 5 6 1015.3 - 13.6
24/07:30am 22.5 25.0 20.2 87 1.5 ESE 7 9 4 5 1014.9 - 13.6
24/07:00am 22.4 24.7 19.9 86 1.6 E 7 9 4 5 1014.9 - 13.4
24/06:30am 22.6 24.1 19.8 84 1.8 ENE 11 13 6 7 1014.8 - 13.4
24/06:00am 22.3 23.3 19.5 84 1.8 ENE 13 17 7 9 1014.3 1014.3 13.4
24/05:30am 22.5 23.6 19.7 84 1.8 E 13 15 7 8 1014.0 - 13.4
24/05:00am 22.3 23.8 19.7 85 1.7 ESE 11 13 6 7 1014.0 - 13.4
24/04:30am 22.1 23.5 19.6 86 1.6 SE 11 13 6 7 1013.8 - 13.4
24/04:00am 21.8 23.8 19.9 89 1.2 SE 9 9 5 5 1014.1 - 13.4
24/03:30am 21.5 24.0 19.8 90 1.1 SSE 6 7 3 4 1014.2 - 13.4
24/03:00am 21.3 23.3 19.9 92 0.9 S 9 13 5 7 1013.9 1013.9 13.4
24/02:30am 20.5 23.8 19.2 92 0.8 CALM 0 0 0 0 1014.2 - 13.4
24/02:00am 20.2 22.3 18.9 92 0.8 WNW 6 7 3 4 1014.6 - 13.4
24/01:30am 20.4 22.5 18.9 91 0.9 WNW 6 7 3 4 1014.7 - 13.4
24/01:00am 20.7 23.7 19.2 91 0.9 NNW 2 7 1 4 1014.8 - 13.4
24/12:30am 20.9 24.2 19.2 90 1.1 CALM 0 0 0 0 1014.9 - 13.4
24/12:00am 21.3 24.8 19.6 90 1.1 CALM 0 6 0 3 1015.0 1015.0 13.4
 
Date/Time
WST
Temp
°C
App
Temp
°C
Dew
Point
Rel
Hum
%
Delta-T
°C
Wind Press
QNH
hPa
Press
MSL
hPa
Rain
since 9 am
mm
Dir
 
Spd
km/h
Gust
km/h
Spd
kts
Gust
kts
23/11:30pm 21.4 23.5 19.3 88 1.3 NW 7 9 4 5 1015.3 - 13.4
23/11:00pm 22.4 24.7 19.8 85 1.7 ESE 7 9 4 5 1015.4 - 13.4
23/10:30pm 22.4 24.3 19.8 85 1.7 ESE 9 11 5 6 1015.2 - 13.4
23/10:00pm 22.4 24.6 19.6 84 1.8 ESE 7 9 4 5 1015.4 - 13.4
23/09:30pm 22.4 23.8 19.6 84 1.8 ESE 11 13 6 7 1015.3 - 13.4
23/09:00pm 22.4 23.8 19.6 84 1.8 E 11 15 6 8 1015.6 1015.6 13.4
23/08:30pm 22.4 23.2 19.9 86 1.6 SE 15 20 8 11 1015.3 - 13.4
23/08:00pm 22.3 22.5 19.3 83 1.9 SSE 17 20 9 11 1014.9 - 13.4
23/07:30pm 22.1 23.1 19.5 85 1.7 SSE 13 15 7 8 1014.9 - 13.4
23/07:00pm 22.0 23.3 19.4 85 1.7 S 11 13 6 7 1014.8 - 13.4
23/06:30pm 22.0 23.3 19.4 85 1.7 SSE 11 13 6 7 1014.8 - 13.4
23/06:00pm 21.9 23.6 19.3 85 1.6 SSE 9 11 5 6 1014.6 1014.6 13.4
23/05:30pm 21.8 23.1 19.4 86 1.5 SE 11 13 6 7 1014.7 - 13.4
23/05:00pm 21.9 23.3 19.5 86 1.5 S 11 17 6 9 1015.1 - 13.4
23/04:30pm 21.9 24.2 19.5 86 1.5 SSE 6 9 3 5 1014.9 - 13.4
23/04:00pm 21.7 25.1 19.4 87 1.5 CALM 0 7 0 4 1014.7 - 13.4
23/03:30pm 21.8 24.3 19.9 89 1.2 S 6 9 3 5 1015.0 - 13.4
23/03:00pm 21.6 22.8 19.9 90 1.1 SSE 13 17 7 9 1015.1 1015.1 13.4
23/02:30pm 21.3 21.5 19.4 89 1.2 SSE 17 20 9 11 1015.1 - 13.4
23/02:00pm 21.4 21.4 19.7 90 1.1 S 19 22 10 12 1015.2 - 12.6
23/01:30pm 21.5 22.7 20.0 91 1.0 S 13 17 7 9 1015.4 - 12.2
23/01:00pm 21.0 20.9 19.5 91 1.0 S 19 22 10 12 1015.9 - 11.8
23/12:30pm 21.0 20.1 19.1 89 1.2 SSE 22 28 12 15 1016.1 - 10.8
23/12:00pm 22.2 23.0 19.9 87 1.5 S 15 19 8 10 1016.3 1016.3 0.6
23/11:30am 22.7 23.0 19.7 83 1.9 S 17 20 9 11 1016.6 - 0.0
23/11:00am 23.0 23.9 20.0 83 1.9 SSE 15 20 8 11 1016.6 - 0.0
23/10:30am 22.9 24.1 19.9 83 1.9 SSE 13 17 7 9 1016.9 - 0.0
23/10:00am 23.0 24.6 20.0 83 1.9 SSE 11 15 6 8 1017.2 - 0.0
23/09:30am 23.1 24.1 20.2 84 1.9 SE 15 17 8 9 1016.9 - 0.0
23/09:00am 22.9 23.4 20.1 84 1.8 SE 17 20 9 11 1016.9 1016.9 6.6
23/08:30am 22.2 22.1 19.6 85 1.7 SSE 19 20 10 11 1016.8 - 6.6
23/08:00am 22.2 22.5 19.6 85 1.7 SSE 17 20 9 11 1016.9 - 6.6
23/07:30am 22.0 22.6 19.5 86 1.6 SSE 15 19 8 10 1016.7 - 6.6
23/07:00am 21.7 22.2 19.3 86 1.5 SE 15 17 8 9 1016.2 - 6.6
23/06:30am 21.7 22.2 19.3 86 1.5 ESE 15 17 8 9 1015.8 - 6.6
23/06:00am 21.6 21.4 19.3 87 1.5 SSE 19 20 10 11 1015.7 1015.7 6.6
23/05:30am 21.5 21.8 19.6 89 1.2 SSE 17 19 9 10 1015.5 - 6.6
23/05:00am 21.5 21.6 20.0 91 1.0 SSE 19 22 10 12 1015.3 - 6.6
23/04:30am 21.5 20.7 20.0 91 1.0 S 24 28 13 15 1015.5 - 6.6
23/04:00am 22.1 21.7 20.2 89 1.2 SSE 22 28 12 15 1015.6 - 5.2
23/03:30am 22.2 23.1 20.1 88 1.4 SSE 15 19 8 10 1015.8 - 5.2
23/03:00am 22.2 24.3 20.1 88 1.3 SE 9 13 5 7 1016.0 1016.0 5.2
23/02:30am 22.1 24.5 20.0 88 1.3 SE 7 9 4 5 1016.3 - 5.2
23/02:00am 22.2 24.0 20.3 89 1.2 SE 11 15 6 8 1016.1 - 5.2
23/01:30am 22.2 24.6 20.1 88 1.4 ESE 7 9 4 5 1016.2 - 5.2
23/01:00am 22.2 24.3 20.1 88 1.4 E 9 11 5 6 1016.2 - 5.2
23/12:30am 22.2 24.3 20.1 88 1.4 E 9 11 5 6 1016.5 - 5.2
23/12:00am 22.2 23.6 20.3 89 1.2 E 13 15 7 8 1016.4 1016.4 5.2
 
Date/Time
WST
Temp
°C
App
Temp
°C
Dew
Point
Rel
Hum
%
Delta-T
°C
Wind Press
QNH
hPa
Press
MSL
hPa
Rain
since 9 am
mm
Dir
 
Spd
km/h
Gust
km/h
Spd
kts
Gust
kts
22/11:30pm 22.3 23.3 20.2 88 1.4 E 15 17 8 9 1016.6 - 5.2
22/11:00pm 22.3 22.9 20.2 88 1.4 ESE 17 20 9 11 1016.9 - 5.2
22/10:30pm 22.2 23.9 20.1 88 1.4 ESE 11 13 6 7 1017.0 - 5.2
22/10:00pm 22.2 23.9 20.1 88 1.4 ENE 11 13 6 7 1017.1 - 5.2
22/09:30pm 22.2 24.0 20.3 89 1.2 NE 11 15 6 8 1016.8 - 5.2
22/09:00pm 22.1 23.4 20.2 89 1.2 NE 13 15 7 8 1017.1 1017.1 5.2
22/08:30pm 21.9 22.4 20.0 89 1.2 NE 17 19 9 10 1016.9 - 5.2
22/08:00pm 21.8 22.0 20.1 90 1.1 NE 19 22 10 12 1016.7 - 5.2
22/07:30pm 21.8 21.8 20.1 90 1.1 NE 20 24 11 13 1016.5 - 5.2
22/07:00pm 21.7 22.7 20.2 91 1.0 NNE 15 17 8 9 1016.4 - 5.0
22/06:30pm 22.3 22.5 20.6 90 1.1 NE 20 24 11 13 1016.0 - 5.0
22/06:00pm 21.8 23.0 19.9 89 1.2 NE 13 15 7 8 1015.9 1015.9 5.0
22/05:30pm 22.4 25.3 20.7 90 1.1 NNE 6 9 3 5 1015.8 - 4.8
22/05:00pm 23.2 24.8 20.7 86 1.6 NNE 13 15 7 8 1015.5 - 0.2
22/04:30pm 23.1 23.4 20.4 85 1.7 NNE 19 22 10 12 1015.2 - 0.0
22/04:00pm 23.2 23.5 20.3 84 1.9 NNE 19 22 10 12 1015.2 - 0.0
22/03:30pm 23.3 23.3 20.1 82 2.1 NNE 20 24 11 13 1015.2 - 0.0

Other Formats:

Comma delimited format used in spreadsheet applications
http://www.bom.gov.au/fwo/IDW60801/IDW60801.95304.axf

JavaScript Object Notation format (JSON) in row-major order
http://www.bom.gov.au/fwo/IDW60801/IDW60801.95304.json